sensor_id;sensor_type;location;lat;lon;timestamp;temperature;humidity
13794;DHT22;31160;49.500;7.772;2024-03-06T00:02:24;3.10;99.90
13794;DHT22;31160;49.500;7.772;2024-03-06T00:04:51;3.20;99.90
13794;DHT22;31160;49.500;7.772;2024-03-06T00:07:17;3.20;99.90
13794;DHT22;31160;49.500;7.772;2024-03-06T00:09:44;3.20;99.90
13794;DHT22;31160;49.500;7.772;2024-03-06T00:12:11;3.30;99.90
13794;DHT22;31160;49.500;7.772;2024-03-06T00:14:38;3.30;99.90
13794;DHT22;31160;49.500;7.772;2024-03-06T00:17:05;3.30;99.90
13794;DHT22;31160;49.500;7.772;2024-03-06T00:19:34;3.30;99.90
13794;DHT22;31160;49.500;7.772;2024-03-06T00:22:01;3.30;99.90
13794;DHT22;31160;49.500;7.772;2024-03-06T00:24:28;3.40;99.90
13794;DHT22;31160;49.500;7.772;2024-03-06T00:26:54;3.50;99.90
13794;DHT22;31160;49.500;7.772;2024-03-06T00:29:21;3.60;99.90
13794;DHT22;31160;49.500;7.772;2024-03-06T00:31:48;3.60;99.90
13794;DHT22;31160;49.500;7.772;2024-03-06T00:34:15;3.60;99.90
13794;DHT22;31160;49.500;7.772;2024-03-06T00:36:45;3.50;99.90
13794;DHT22;31160;49.500;7.772;2024-03-06T00:39:12;3.40;99.90
13794;DHT22;31160;49.500;7.772;2024-03-06T00:41:42;3.40;99.90
13794;DHT22;31160;49.500;7.772;2024-03-06T00:44:09;3.50;99.90
13794;DHT22;31160;49.500;7.772;2024-03-06T00:46:36;3.50;99.90
13794;DHT22;31160;49.500;7.772;2024-03-06T00:49:03;3.50;99.90
13794;DHT22;31160;49.500;7.772;2024-03-06T00:51:29;3.50;99.90
13794;DHT22;31160;49.500;7.772;2024-03-06T00:54:10;3.50;99.90
13794;DHT22;31160;49.500;7.772;2024-03-06T00:56:38;3.60;99.90
13794;DHT22;31160;49.500;7.772;2024-03-06T00:59:05;3.70;99.90
13794;DHT22;31160;49.500;7.772;2024-03-06T01:01:32;3.60;99.90
13794;DHT22;31160;49.500;7.772;2024-03-06T01:03:59;3.70;99.90
13794;DHT22;31160;49.500;7.772;2024-03-06T01:06:26;3.70;99.90
13794;DHT22;31160;49.500;7.772;2024-03-06T01:08:53;3.70;99.90
13794;DHT22;31160;49.500;7.772;2024-03-06T01:11:21;3.70;99.90
13794;DHT22;31160;49.500;7.772;2024-03-06T01:13:48;3.70;99.90
13794;DHT22;31160;49.500;7.772;2024-03-06T01:16:15;3.70;99.90
13794;DHT22;31160;49.500;7.772;2024-03-06T01:18:42;3.70;99.90
13794;DHT22;31160;49.500;7.772;2024-03-06T01:21:09;3.70;99.90
13794;DHT22;31160;49.500;7.772;2024-03-06T01:23:36;3.70;99.90
13794;DHT22;31160;49.500;7.772;2024-03-06T01:26:03;3.60;99.90
13794;DHT22;31160;49.500;7.772;2024-03-06T01:28:29;3.60;99.90
13794;DHT22;31160;49.500;7.772;2024-03-06T01:30:56;3.50;99.90
13794;DHT22;31160;49.500;7.772;2024-03-06T01:33:25;3.40;99.90
13794;DHT22;31160;49.500;7.772;2024-03-06T01:35:52;3.40;99.90
13794;DHT22;31160;49.500;7.772;2024-03-06T01:38:18;3.40;99.90
13794;DHT22;31160;49.500;7.772;2024-03-06T01:40:45;3.40;99.90
13794;DHT22;31160;49.500;7.772;2024-03-06T01:43:22;3.40;99.90
13794;DHT22;31160;49.500;7.772;2024-03-06T01:45:50;3.40;99.90
13794;DHT22;31160;49.500;7.772;2024-03-06T01:48:20;3.40;99.90
13794;DHT22;31160;49.500;7.772;2024-03-06T01:50:47;3.40;99.90
13794;DHT22;31160;49.500;7.772;2024-03-06T01:53:15;3.40;99.90
13794;DHT22;31160;49.500;7.772;2024-03-06T01:55:43;3.40;99.90
13794;DHT22;31160;49.500;7.772;2024-03-06T01:58:11;3.40;99.90
13794;DHT22;31160;49.500;7.772;2024-03-06T02:00:38;3.40;99.90
13794;DHT22;31160;49.500;7.772;2024-03-06T02:03:05;3.30;99.90
13794;DHT22;31160;49.500;7.772;2024-03-06T02:05:32;3.20;99.90
13794;DHT22;31160;49.500;7.772;2024-03-06T02:07:59;3.30;99.90
13794;DHT22;31160;49.500;7.772;2024-03-06T02:10:30;3.30;99.90
13794;DHT22;31160;49.500;7.772;2024-03-06T02:12:56;3.40;99.90
13794;DHT22;31160;49.500;7.772;2024-03-06T02:15:24;3.30;99.90
13794;DHT22;31160;49.500;7.772;2024-03-06T02:17:51;3.20;99.90
13794;DHT22;31160;49.500;7.772;2024-03-06T02:20:24;3.10;99.90
13794;DHT22;31160;49.500;7.772;2024-03-06T02:22:51;2.80;99.90
13794;DHT22;31160;49.500;7.772;2024-03-06T02:25:18;2.80;99.90
13794;DHT22;31160;49.500;7.772;2024-03-06T02:27:46;2.60;99.90
13794;DHT22;31160;49.500;7.772;2024-03-06T02:30:18;2.70;99.90
13794;DHT22;31160;49.500;7.772;2024-03-06T02:32:45;2.80;99.90
13794;DHT22;31160;49.500;7.772;2024-03-06T02:35:12;2.80;99.90
13794;DHT22;31160;49.500;7.772;2024-03-06T02:37:43;2.80;99.90
13794;DHT22;31160;49.500;7.772;2024-03-06T02:40:13;2.80;99.90
13794;DHT22;31160;49.500;7.772;2024-03-06T02:42:39;2.90;99.90
13794;DHT22;31160;49.500;7.772;2024-03-06T02:45:06;2.90;99.90
13794;DHT22;31160;49.500;7.772;2024-03-06T02:47:36;3.00;99.90
13794;DHT22;31160;49.500;7.772;2024-03-06T02:50:03;3.00;99.90
13794;DHT22;31160;49.500;7.772;2024-03-06T02:52:31;3.00;99.90
13794;DHT22;31160;49.500;7.772;2024-03-06T02:54:58;3.10;99.90
13794;DHT22;31160;49.500;7.772;2024-03-06T02:57:27;3.10;99.90
13794;DHT22;31160;49.500;7.772;2024-03-06T02:59:58;3.10;99.90
13794;DHT22;31160;49.500;7.772;2024-03-06T03:02:25;3.10;99.90
13794;DHT22;31160;49.500;7.772;2024-03-06T03:04:52;3.10;99.90
13794;DHT22;31160;49.500;7.772;2024-03-06T03:07:19;3.10;99.90
13794;DHT22;31160;49.500;7.772;2024-03-06T03:09:46;3.10;99.90
13794;DHT22;31160;49.500;7.772;2024-03-06T03:12:14;3.10;99.90
13794;DHT22;31160;49.500;7.772;2024-03-06T03:14:40;3.10;99.90
13794;DHT22;31160;49.500;7.772;2024-03-06T03:17:08;3.00;99.90
13794;DHT22;31160;49.500;7.772;2024-03-06T03:19:35;3.00;99.90
13794;DHT22;31160;49.500;7.772;2024-03-06T03:22:01;2.90;99.90
13794;DHT22;31160;49.500;7.772;2024-03-06T03:24:31;2.70;99.90
13794;DHT22;31160;49.500;7.772;2024-03-06T03:26:57;2.70;99.90
13794;DHT22;31160;49.500;7.772;2024-03-06T03:29:24;2.70;99.90
13794;DHT22;31160;49.500;7.772;2024-03-06T03:31:51;2.80;99.90
13794;DHT22;31160;49.500;7.772;2024-03-06T03:34:18;2.80;99.90
13794;DHT22;31160;49.500;7.772;2024-03-06T03:36:44;2.70;99.90
13794;DHT22;31160;49.500;7.772;2024-03-06T03:39:12;2.70;99.90
13794;DHT22;31160;49.500;7.772;2024-03-06T03:41:44;2.70;99.90
13794;DHT22;31160;49.500;7.772;2024-03-06T03:44:16;2.70;99.90
13794;DHT22;31160;49.500;7.772;2024-03-06T03:46:43;2.70;99.90
13794;DHT22;31160;49.500;7.772;2024-03-06T03:49:11;2.70;99.90
13794;DHT22;31160;49.500;7.772;2024-03-06T03:51:39;2.50;99.90
13794;DHT22;31160;49.500;7.772;2024-03-06T03:54:06;2.40;99.90
13794;DHT22;31160;49.500;7.772;2024-03-06T03:56:33;2.10;99.90
13794;DHT22;31160;49.500;7.772;2024-03-06T03:59:00;2.10;99.90
13794;DHT22;31160;49.500;7.772;2024-03-06T04:01:27;2.20;99.90
13794;DHT22;31160;49.500;7.772;2024-03-06T04:03:54;2.20;99.90
13794;DHT22;31160;49.500;7.772;2024-03-06T04:06:21;2.30;99.90
13794;DHT22;31160;49.500;7.772;2024-03-06T04:08:47;2.40;99.90
13794;DHT22;31160;49.500;7.772;2024-03-06T04:11:15;2.40;99.90
13794;DHT22;31160;49.500;7.772;2024-03-06T04:13:42;2.40;99.90
13794;DHT22;31160;49.500;7.772;2024-03-06T04:16:09;2.40;99.90
13794;DHT22;31160;49.500;7.772;2024-03-06T04:18:36;2.40;99.90
13794;DHT22;31160;49.500;7.772;2024-03-06T04:21:04;2.50;99.90
13794;DHT22;31160;49.500;7.772;2024-03-06T04:23:32;2.40;99.90
13794;DHT22;31160;49.500;7.772;2024-03-06T04:26:00;2.40;99.90
13794;DHT22;31160;49.500;7.772;2024-03-06T04:28:27;2.40;99.90
13794;DHT22;31160;49.500;7.772;2024-03-06T04:30:54;2.40;99.90
13794;DHT22;31160;49.500;7.772;2024-03-06T04:33:21;2.40;99.90
13794;DHT22;31160;49.500;7.772;2024-03-06T04:35:48;2.40;99.90
13794;DHT22;31160;49.500;7.772;2024-03-06T04:38:15;2.40;99.90
13794;DHT22;31160;49.500;7.772;2024-03-06T04:40:42;2.40;99.90
13794;DHT22;31160;49.500;7.772;2024-03-06T04:43:09;2.40;99.90
13794;DHT22;31160;49.500;7.772;2024-03-06T04:45:36;2.40;99.90
13794;DHT22;31160;49.500;7.772;2024-03-06T04:48:03;2.40;99.90
13794;DHT22;31160;49.500;7.772;2024-03-06T04:50:30;2.40;99.90
13794;DHT22;31160;49.500;7.772;2024-03-06T04:52:57;2.40;99.90
13794;DHT22;31160;49.500;7.772;2024-03-06T04:55:24;2.40;99.90
13794;DHT22;31160;49.500;7.772;2024-03-06T04:57:52;2.40;99.90
13794;DHT22;31160;49.500;7.772;2024-03-06T05:00:20;2.40;99.90
13794;DHT22;31160;49.500;7.772;2024-03-06T05:02:47;2.40;99.90
13794;DHT22;31160;49.500;7.772;2024-03-06T05:05:33;2.40;99.90
13794;DHT22;31160;49.500;7.772;2024-03-06T05:08:17;2.40;99.90
13794;DHT22;31160;49.500;7.772;2024-03-06T05:11:01;2.50;99.90
13794;DHT22;31160;49.500;7.772;2024-03-06T05:13:46;2.60;99.90
13794;DHT22;31160;49.500;7.772;2024-03-06T05:16:30;2.60;99.90
13794;DHT22;31160;49.500;7.772;2024-03-06T05:19:14;2.60;99.90
13794;DHT22;31160;49.500;7.772;2024-03-06T05:21:59;2.70;99.90
13794;DHT22;31160;49.500;7.772;2024-03-06T05:24:44;2.70;99.90
13794;DHT22;31160;49.500;7.772;2024-03-06T05:27:28;2.80;99.90
13794;DHT22;31160;49.500;7.772;2024-03-06T05:30:12;2.70;99.90
13794;DHT22;31160;49.500;7.772;2024-03-06T05:32:57;2.70;99.90
13794;DHT22;31160;49.500;7.772;2024-03-06T05:35:41;2.80;99.90
13794;DHT22;31160;49.500;7.772;2024-03-06T05:38:26;2.80;99.90
13794;DHT22;31160;49.500;7.772;2024-03-06T05:41:11;2.90;99.90
13794;DHT22;31160;49.500;7.772;2024-03-06T05:43:55;2.80;99.90
13794;DHT22;31160;49.500;7.772;2024-03-06T05:46:40;2.90;99.90
13794;DHT22;31160;49.500;7.772;2024-03-06T05:49:24;2.90;99.90
13794;DHT22;31160;49.500;7.772;2024-03-06T05:52:09;2.80;99.90
13794;DHT22;31160;49.500;7.772;2024-03-06T05:54:53;2.80;99.90
13794;DHT22;31160;49.500;7.772;2024-03-06T05:57:37;2.80;99.90
13794;DHT22;31160;49.500;7.772;2024-03-06T06:00:22;2.80;99.90
13794;DHT22;31160;49.500;7.772;2024-03-06T06:02:49;2.90;99.90
13794;DHT22;31160;49.500;7.772;2024-03-06T06:05:16;2.90;99.90
13794;DHT22;31160;49.500;7.772;2024-03-06T06:07:50;2.90;99.90
13794;DHT22;31160;49.500;7.772;2024-03-06T06:10:17;2.90;99.90
13794;DHT22;31160;49.500;7.772;2024-03-06T06:12:48;2.90;99.90
13794;DHT22;31160;49.500;7.772;2024-03-06T06:15:16;2.90;99.90
13794;DHT22;31160;49.500;7.772;2024-03-06T06:17:43;2.90;99.90
13794;DHT22;31160;49.500;7.772;2024-03-06T06:20:12;2.80;99.90
13794;DHT22;31160;49.500;7.772;2024-03-06T06:22:43;2.80;99.90
13794;DHT22;31160;49.500;7.772;2024-03-06T06:25:10;2.90;99.90
13794;DHT22;31160;49.500;7.772;2024-03-06T06:27:37;2.90;99.90
13794;DHT22;31160;49.500;7.772;2024-03-06T06:30:05;2.90;99.90
13794;DHT22;31160;49.500;7.772;2024-03-06T06:32:33;3.00;99.90
13794;DHT22;31160;49.500;7.772;2024-03-06T06:35:01;3.10;99.90
13794;DHT22;31160;49.500;7.772;2024-03-06T06:37:28;3.10;99.90
13794;DHT22;31160;49.500;7.772;2024-03-06T06:39:55;3.30;99.90
13794;DHT22;31160;49.500;7.772;2024-03-06T06:42:22;3.30;99.90
13794;DHT22;31160;49.500;7.772;2024-03-06T06:44:48;3.30;99.90
13794;DHT22;31160;49.500;7.772;2024-03-06T06:47:16;3.30;99.90
13794;DHT22;31160;49.500;7.772;2024-03-06T06:49:42;3.40;99.90
13794;DHT22;31160;49.500;7.772;2024-03-06T06:52:09;3.40;99.90
13794;DHT22;31160;49.500;7.772;2024-03-06T06:54:36;3.40;99.90
13794;DHT22;31160;49.500;7.772;2024-03-06T06:57:03;3.40;99.90
13794;DHT22;31160;49.500;7.772;2024-03-06T06:59:30;3.40;99.90
13794;DHT22;31160;49.500;7.772;2024-03-06T07:01:57;3.30;99.90
13794;DHT22;31160;49.500;7.772;2024-03-06T07:04:24;3.30;99.90
13794;DHT22;31160;49.500;7.772;2024-03-06T07:06:51;3.30;99.90
13794;DHT22;31160;49.500;7.772;2024-03-06T07:09:19;3.30;99.90
13794;DHT22;31160;49.500;7.772;2024-03-06T07:11:46;3.10;99.90
13794;DHT22;31160;49.500;7.772;2024-03-06T07:14:13;3.10;99.90
13794;DHT22;31160;49.500;7.772;2024-03-06T07:16:44;2.90;99.90
13794;DHT22;31160;49.500;7.772;2024-03-06T07:19:11;2.90;99.90
13794;DHT22;31160;49.500;7.772;2024-03-06T07:21:38;2.90;99.90
13794;DHT22;31160;49.500;7.772;2024-03-06T07:24:06;2.90;99.90
13794;DHT22;31160;49.500;7.772;2024-03-06T07:26:33;2.90;99.90
13794;DHT22;31160;49.500;7.772;2024-03-06T07:29:01;2.90;99.90
13794;DHT22;31160;49.500;7.772;2024-03-06T07:31:28;3.00;99.90
13794;DHT22;31160;49.500;7.772;2024-03-06T07:33:55;3.10;99.90
13794;DHT22;31160;49.500;7.772;2024-03-06T07:36:22;3.10;99.90
13794;DHT22;31160;49.500;7.772;2024-03-06T07:38:49;3.20;99.90
13794;DHT22;31160;49.500;7.772;2024-03-06T07:41:16;3.30;99.90
13794;DHT22;31160;49.500;7.772;2024-03-06T07:43:43;3.50;99.90
13794;DHT22;31160;49.500;7.772;2024-03-06T07:46:10;3.80;99.90
13794;DHT22;31160;49.500;7.772;2024-03-06T07:48:38;3.90;99.90
13794;DHT22;31160;49.500;7.772;2024-03-06T07:51:05;4.00;99.90
13794;DHT22;31160;49.500;7.772;2024-03-06T07:53:33;4.10;99.90
13794;DHT22;31160;49.500;7.772;2024-03-06T07:56:01;4.30;99.90
13794;DHT22;31160;49.500;7.772;2024-03-06T07:58:28;4.50;99.90
13794;DHT22;31160;49.500;7.772;2024-03-06T08:00:55;4.60;99.90
13794;DHT22;31160;49.500;7.772;2024-03-06T08:03:23;4.70;99.90
13794;DHT22;31160;49.500;7.772;2024-03-06T08:05:52;4.70;99.90
13794;DHT22;31160;49.500;7.772;2024-03-06T08:08:22;4.80;99.90
13794;DHT22;31160;49.500;7.772;2024-03-06T08:10:49;4.90;99.90
13794;DHT22;31160;49.500;7.772;2024-03-06T08:13:16;4.90;99.90
13794;DHT22;31160;49.500;7.772;2024-03-06T08:15:43;4.80;99.90
13794;DHT22;31160;49.500;7.772;2024-03-06T08:18:12;5.00;99.90
13794;DHT22;31160;49.500;7.772;2024-03-06T08:20:40;5.10;99.90
13794;DHT22;31160;49.500;7.772;2024-03-06T08:23:08;5.10;99.90
13794;DHT22;31160;49.500;7.772;2024-03-06T08:25:37;5.10;99.90
13794;DHT22;31160;49.500;7.772;2024-03-06T08:28:04;5.20;99.90
13794;DHT22;31160;49.500;7.772;2024-03-06T08:30:32;5.20;99.90
13794;DHT22;31160;49.500;7.772;2024-03-06T08:32:59;5.10;99.90
13794;DHT22;31160;49.500;7.772;2024-03-06T08:35:29;5.20;99.90
13794;DHT22;31160;49.500;7.772;2024-03-06T08:37:56;5.40;99.90
13794;DHT22;31160;49.500;7.772;2024-03-06T08:40:23;5.50;99.90
13794;DHT22;31160;49.500;7.772;2024-03-06T08:42:52;5.50;99.90
13794;DHT22;31160;49.500;7.772;2024-03-06T08:45:19;5.50;99.90
13794;DHT22;31160;49.500;7.772;2024-03-06T08:47:46;5.70;99.90
13794;DHT22;31160;49.500;7.772;2024-03-06T08:50:14;5.20;99.90
13794;DHT22;31160;49.500;7.772;2024-03-06T08:52:41;5.30;99.90
13794;DHT22;31160;49.500;7.772;2024-03-06T08:55:09;5.20;99.90
13794;DHT22;31160;49.500;7.772;2024-03-06T08:57:36;5.30;99.90
13794;DHT22;31160;49.500;7.772;2024-03-06T09:00:04;5.50;99.90
13794;DHT22;31160;49.500;7.772;2024-03-06T09:02:35;5.70;99.90
13794;DHT22;31160;49.500;7.772;2024-03-06T09:05:02;5.50;99.90
13794;DHT22;31160;49.500;7.772;2024-03-06T09:07:31;5.50;99.90
13794;DHT22;31160;49.500;7.772;2024-03-06T09:09:58;5.40;99.90
13794;DHT22;31160;49.500;7.772;2024-03-06T09:12:24;5.50;99.90
13794;DHT22;31160;49.500;7.772;2024-03-06T09:14:51;5.80;99.90
13794;DHT22;31160;49.500;7.772;2024-03-06T09:17:18;5.80;99.90
13794;DHT22;31160;49.500;7.772;2024-03-06T09:19:45;5.80;99.90
13794;DHT22;31160;49.500;7.772;2024-03-06T09:22:29;5.90;99.90
13794;DHT22;31160;49.500;7.772;2024-03-06T09:24:56;6.00;99.90
13794;DHT22;31160;49.500;7.772;2024-03-06T09:27:23;6.20;99.90
13794;DHT22;31160;49.500;7.772;2024-03-06T09:29:50;6.40;99.90
13794;DHT22;31160;49.500;7.772;2024-03-06T09:32:17;6.40;99.90
13794;DHT22;31160;49.500;7.772;2024-03-06T09:34:46;6.50;99.90
13794;DHT22;31160;49.500;7.772;2024-03-06T09:37:13;6.70;99.90
13794;DHT22;31160;49.500;7.772;2024-03-06T09:39:39;6.70;99.90
13794;DHT22;31160;49.500;7.772;2024-03-06T09:42:07;6.70;99.90
13794;DHT22;31160;49.500;7.772;2024-03-06T09:44:34;6.80;99.90
13794;DHT22;31160;49.500;7.772;2024-03-06T09:47:03;6.90;99.90
13794;DHT22;31160;49.500;7.772;2024-03-06T09:49:32;7.10;99.90
13794;DHT22;31160;49.500;7.772;2024-03-06T09:52:01;7.20;99.90
13794;DHT22;31160;49.500;7.772;2024-03-06T09:54:29;7.30;99.90
13794;DHT22;31160;49.500;7.772;2024-03-06T09:56:57;7.60;99.90
13794;DHT22;31160;49.500;7.772;2024-03-06T09:59:25;8.20;99.90
13794;DHT22;31160;49.500;7.772;2024-03-06T10:01:55;8.60;99.90
13794;DHT22;31160;49.500;7.772;2024-03-06T10:04:23;8.70;99.90
13794;DHT22;31160;49.500;7.772;2024-03-06T10:06:55;8.80;99.90
13794;DHT22;31160;49.500;7.772;2024-03-06T10:09:23;8.90;99.90
13794;DHT22;31160;49.500;7.772;2024-03-06T10:11:50;8.70;99.90
13794;DHT22;31160;49.500;7.772;2024-03-06T10:14:19;8.60;99.90
13794;DHT22;31160;49.500;7.772;2024-03-06T10:16:57;8.70;99.90
13794;DHT22;31160;49.500;7.772;2024-03-06T10:19:26;9.00;99.90
13794;DHT22;31160;49.500;7.772;2024-03-06T10:21:57;9.30;99.90
13794;DHT22;31160;49.500;7.772;2024-03-06T10:24:26;9.40;99.90
13794;DHT22;31160;49.500;7.772;2024-03-06T10:26:55;9.30;99.90
13794;DHT22;31160;49.500;7.772;2024-03-06T10:29:26;8.90;99.90
13794;DHT22;31160;49.500;7.772;2024-03-06T10:31:55;8.90;99.90
13794;DHT22;31160;49.500;7.772;2024-03-06T10:34:27;9.00;99.90
13794;DHT22;31160;49.500;7.772;2024-03-06T10:36:55;9.10;99.90
13794;DHT22;31160;49.500;7.772;2024-03-06T10:39:22;9.00;99.90
13794;DHT22;31160;49.500;7.772;2024-03-06T10:41:52;9.20;99.90
13794;DHT22;31160;49.500;7.772;2024-03-06T10:44:22;9.40;99.90
13794;DHT22;31160;49.500;7.772;2024-03-06T10:47:05;9.60;99.90
13794;DHT22;31160;49.500;7.772;2024-03-06T10:49:32;9.70;99.90
13794;DHT22;31160;49.500;7.772;2024-03-06T10:52:03;10.00;99.90
13794;DHT22;31160;49.500;7.772;2024-03-06T10:54:34;10.20;99.90
13794;DHT22;31160;49.500;7.772;2024-03-06T10:57:02;10.30;99.90
13794;DHT22;31160;49.500;7.772;2024-03-06T10:59:30;10.40;99.90
13794;DHT22;31160;49.500;7.772;2024-03-06T11:01:59;10.50;99.90
13794;DHT22;31160;49.500;7.772;2024-03-06T11:04:30;10.40;99.90
13794;DHT22;31160;49.500;7.772;2024-03-06T11:07:02;10.60;99.90
13794;DHT22;31160;49.500;7.772;2024-03-06T11:09:33;10.80;99.90
13794;DHT22;31160;49.500;7.772;2024-03-06T11:12:07;10.70;99.90
13794;DHT22;31160;49.500;7.772;2024-03-06T11:14:38;11.00;99.90
13794;DHT22;31160;49.500;7.772;2024-03-06T11:17:08;11.20;99.90
13794;DHT22;31160;49.500;7.772;2024-03-06T11:20:07;11.20;99.90
13794;DHT22;31160;49.500;7.772;2024-03-06T11:28:18;11.90;99.90
13794;DHT22;31160;49.500;7.772;2024-03-06T11:31:04;11.80;99.90
13794;DHT22;31160;49.500;7.772;2024-03-06T11:33:41;11.60;99.90
13794;DHT22;31160;49.500;7.772;2024-03-06T11:36:29;11.30;99.90
13794;DHT22;31160;49.500;7.772;2024-03-06T11:39:02;10.90;99.90
13794;DHT22;31160;49.500;7.772;2024-03-06T11:44:19;10.80;99.90
13794;DHT22;31160;49.500;7.772;2024-03-06T11:47:05;11.20;99.90
13794;DHT22;31160;49.500;7.772;2024-03-06T11:49:34;11.50;99.90
13794;DHT22;31160;49.500;7.772;2024-03-06T11:52:04;11.90;99.90
13794;DHT22;31160;49.500;7.772;2024-03-06T11:54:32;12.10;99.90
13794;DHT22;31160;49.500;7.772;2024-03-06T11:57:01;12.40;99.90
13794;DHT22;31160;49.500;7.772;2024-03-06T11:59:36;12.70;99.90
13794;DHT22;31160;49.500;7.772;2024-03-06T12:02:06;12.70;99.90
13794;DHT22;31160;49.500;7.772;2024-03-06T12:04:34;12.60;99.90
13794;DHT22;31160;49.500;7.772;2024-03-06T12:07:02;12.50;99.90
13794;DHT22;31160;49.500;7.772;2024-03-06T12:09:34;12.60;99.90
13794;DHT22;31160;49.500;7.772;2024-03-06T12:12:07;12.60;99.90
13794;DHT22;31160;49.500;7.772;2024-03-06T12:14:35;12.10;99.90
13794;DHT22;31160;49.500;7.772;2024-03-06T12:17:03;12.20;99.90
13794;DHT22;31160;49.500;7.772;2024-03-06T12:19:35;12.30;99.90
13794;DHT22;31160;49.500;7.772;2024-03-06T12:22:03;12.20;99.90
13794;DHT22;31160;49.500;7.772;2024-03-06T12:24:31;12.20;99.90
13794;DHT22;31160;49.500;7.772;2024-03-06T12:27:03;12.10;99.90
13794;DHT22;31160;49.500;7.772;2024-03-06T12:29:31;12.10;99.90
13794;DHT22;31160;49.500;7.772;2024-03-06T12:32:00;12.20;99.90
13794;DHT22;31160;49.500;7.772;2024-03-06T12:34:27;12.20;99.90
13794;DHT22;31160;49.500;7.772;2024-03-06T12:36:54;12.20;99.90
13794;DHT22;31160;49.500;7.772;2024-03-06T12:39:23;12.20;99.90
13794;DHT22;31160;49.500;7.772;2024-03-06T12:41:51;12.20;99.90
13794;DHT22;31160;49.500;7.772;2024-03-06T12:44:20;12.20;99.90
13794;DHT22;31160;49.500;7.772;2024-03-06T12:46:47;12.20;99.90
13794;DHT22;31160;49.500;7.772;2024-03-06T12:49:15;12.20;99.90
13794;DHT22;31160;49.500;7.772;2024-03-06T12:51:42;12.10;99.90
13794;DHT22;31160;49.500;7.772;2024-03-06T12:54:09;12.10;99.80
13794;DHT22;31160;49.500;7.772;2024-03-06T12:56:35;11.80;99.90
13794;DHT22;31160;49.500;7.772;2024-03-06T12:59:03;11.90;99.90
13794;DHT22;31160;49.500;7.772;2024-03-06T13:01:30;11.90;99.90
13794;DHT22;31160;49.500;7.772;2024-03-06T13:03:58;11.90;99.90
13794;DHT22;31160;49.500;7.772;2024-03-06T13:06:33;11.80;99.90
13794;DHT22;31160;49.500;7.772;2024-03-06T13:08:59;11.70;99.90
13794;DHT22;31160;49.500;7.772;2024-03-06T13:11:26;11.80;99.90
13794;DHT22;31160;49.500;7.772;2024-03-06T13:13:53;11.60;99.90
13794;DHT22;31160;49.500;7.772;2024-03-06T13:16:20;11.80;99.90
13794;DHT22;31160;49.500;7.772;2024-03-06T13:18:48;11.80;99.90
13794;DHT22;31160;49.500;7.772;2024-03-06T13:21:16;11.80;99.90
13794;DHT22;31160;49.500;7.772;2024-03-06T13:23:43;12.00;99.90
13794;DHT22;31160;49.500;7.772;2024-03-06T13:26:10;12.00;99.90
13794;DHT22;31160;49.500;7.772;2024-03-06T13:28:36;12.10;99.90
13794;DHT22;31160;49.500;7.772;2024-03-06T13:31:03;12.10;99.90
13794;DHT22;31160;49.500;7.772;2024-03-06T13:33:33;12.10;99.90
13794;DHT22;31160;49.500;7.772;2024-03-06T13:36:00;12.10;99.90
13794;DHT22;31160;49.500;7.772;2024-03-06T13:38:31;11.90;99.90
13794;DHT22;31160;49.500;7.772;2024-03-06T13:40:58;11.70;99.90
13794;DHT22;31160;49.500;7.772;2024-03-06T13:43:25;11.30;99.90
13794;DHT22;31160;49.500;7.772;2024-03-06T13:45:51;11.20;99.90
13794;DHT22;31160;49.500;7.772;2024-03-06T13:48:19;11.10;99.90
13794;DHT22;31160;49.500;7.772;2024-03-06T13:50:46;11.00;99.90
13794;DHT22;31160;49.500;7.772;2024-03-06T13:53:14;11.00;99.90
13794;DHT22;31160;49.500;7.772;2024-03-06T13:55:41;11.00;99.90
13794;DHT22;31160;49.500;7.772;2024-03-06T13:58:08;11.10;99.90
13794;DHT22;31160;49.500;7.772;2024-03-06T14:00:35;11.00;99.90
13794;DHT22;31160;49.500;7.772;2024-03-06T14:03:02;11.10;99.90
13794;DHT22;31160;49.500;7.772;2024-03-06T14:05:28;10.90;99.90
13794;DHT22;31160;49.500;7.772;2024-03-06T14:07:55;11.10;99.90
13794;DHT22;31160;49.500;7.772;2024-03-06T14:10:23;11.10;99.90
13794;DHT22;31160;49.500;7.772;2024-03-06T14:12:50;11.20;99.90
13794;DHT22;31160;49.500;7.772;2024-03-06T14:15:19;11.20;99.90
13794;DHT22;31160;49.500;7.772;2024-03-06T14:17:46;11.30;99.90
13794;DHT22;31160;49.500;7.772;2024-03-06T14:20:13;11.30;99.90
13794;DHT22;31160;49.500;7.772;2024-03-06T14:22:42;11.30;99.90
13794;DHT22;31160;49.500;7.772;2024-03-06T14:25:09;11.20;99.90
13794;DHT22;31160;49.500;7.772;2024-03-06T14:27:36;11.40;99.90
13794;DHT22;31160;49.500;7.772;2024-03-06T14:30:04;11.40;99.90
13794;DHT22;31160;49.500;7.772;2024-03-06T14:32:33;11.40;99.90
13794;DHT22;31160;49.500;7.772;2024-03-06T14:35:01;11.40;99.90
13794;DHT22;31160;49.500;7.772;2024-03-06T14:37:28;11.30;99.90
13794;DHT22;31160;49.500;7.772;2024-03-06T14:39:57;11.30;99.90
13794;DHT22;31160;49.500;7.772;2024-03-06T14:42:26;11.20;99.90
13794;DHT22;31160;49.500;7.772;2024-03-06T14:44:53;11.10;99.90
13794;DHT22;31160;49.500;7.772;2024-03-06T14:47:20;11.10;99.90
13794;DHT22;31160;49.500;7.772;2024-03-06T14:49:46;11.10;99.90
13794;DHT22;31160;49.500;7.772;2024-03-06T14:52:13;11.10;99.90
13794;DHT22;31160;49.500;7.772;2024-03-06T14:54:40;11.10;99.90
13794;DHT22;31160;49.500;7.772;2024-03-06T14:57:10;11.10;99.90
13794;DHT22;31160;49.500;7.772;2024-03-06T14:59:38;11.10;99.90
13794;DHT22;31160;49.500;7.772;2024-03-06T15:02:05;11.10;99.90
13794;DHT22;31160;49.500;7.772;2024-03-06T15:04:33;11.30;99.90
13794;DHT22;31160;49.500;7.772;2024-03-06T15:07:00;11.30;99.90
13794;DHT22;31160;49.500;7.772;2024-03-06T15:09:26;11.30;99.90
13794;DHT22;31160;49.500;7.772;2024-03-06T15:11:54;11.30;99.90
13794;DHT22;31160;49.500;7.772;2024-03-06T15:14:23;11.30;99.90
13794;DHT22;31160;49.500;7.772;2024-03-06T15:16:50;11.40;99.90
13794;DHT22;31160;49.500;7.772;2024-03-06T15:19:17;11.50;99.90
13794;DHT22;31160;49.500;7.772;2024-03-06T15:21:43;11.60;99.90
13794;DHT22;31160;49.500;7.772;2024-03-06T15:24:10;11.60;99.90
13794;DHT22;31160;49.500;7.772;2024-03-06T15:26:37;11.60;99.90
13794;DHT22;31160;49.500;7.772;2024-03-06T15:29:04;11.60;99.90
13794;DHT22;31160;49.500;7.772;2024-03-06T15:31:36;11.50;99.90
13794;DHT22;31160;49.500;7.772;2024-03-06T15:34:03;11.50;99.90
13794;DHT22;31160;49.500;7.772;2024-03-06T15:36:30;11.50;99.90
13794;DHT22;31160;49.500;7.772;2024-03-06T15:38:57;11.40;99.90
13794;DHT22;31160;49.500;7.772;2024-03-06T15:41:25;11.40;99.90
13794;DHT22;31160;49.500;7.772;2024-03-06T15:43:52;11.20;99.90
13794;DHT22;31160;49.500;7.772;2024-03-06T15:46:18;11.00;99.90
13794;DHT22;31160;49.500;7.772;2024-03-06T15:48:45;11.00;99.90
13794;DHT22;31160;49.500;7.772;2024-03-06T15:51:12;10.90;99.90
13794;DHT22;31160;49.500;7.772;2024-03-06T15:53:40;10.90;99.90
13794;DHT22;31160;49.500;7.772;2024-03-06T15:56:07;10.90;99.90
13794;DHT22;31160;49.500;7.772;2024-03-06T15:58:34;10.70;99.90
13794;DHT22;31160;49.500;7.772;2024-03-06T16:01:01;10.70;99.90